Monatstabelle

Bitte in den Auwahlmenüs den gewünschte Zeiraum wählen und die Schaltfläche "Anfrage absenden" betätigen. Beginn der Aufzeichnung ist 2007 - Dezember. Vor diesem Zeitraum sind keine Daten verfügbar.

2018 - November

 

Datum Temperatur (°C) Luftdruck (hPa) Luftfeuchte (%) Regen
(l/m²)
Wind (km/h)
avg: min: max: avg: min: max: avg: min: max: avg: max:
01.11.2018 15,2 13,5 19,1 1015,8 1014,6 1017,4 66 52 77 0,0 10,5 18,5
02.11.2018 15,1 10,2 21,9 1019,0 1014,9 1020,1 79 60 88 2,1 2,0 13,5
03.11.2018 12,4 11,8 14,7 1021,9 1019,8 1022,8 88 85 89 0,5 1,3 9,0
04.11.2018 12,6 9,0 19,9 1016,7 1015,6 1020,9 85 70 90 0,0 2,3 9,2
05.11.2018 12,7 7,6 17,3 1015,3 1014,1 1016,4 84 70 90 0,1 11,0 18,2
06.11.2018 13,9 11,0 19,1 1014,1 1013,1 1015,9 78 67 88 0,0 9,9 17,9
07.11.2018 14,4 12,0 18,1 1013,7 1012,4 1015,1 79 67 83 0,0 14,3 19,8
08.11.2018 10,7 7,1 13,3 1018,4 1013,6 1019,8 88 78 90 0,0 0,9 12,2
09.11.2018 12,3 8,4 17,7 1014,5 1012,8 1017,7 80 66 90 0,0 9,7 16,9
10.11.2018 9,4 5,7 15,7 1010,8 1009,8 1012,8 85 69 90 0,0 2,6 13,2
11.11.2018 7,7 7,5 12,5 1012,8 1009,9 1015,7 90 81 90 0,0 0,5 5,5
12.11.2018 8,0 7,3 8,3 1019,4 1018,8 1020,7 91 90 91 0,3 1,3 4,0
13.11.2018 10,4 7,2 12,5 1023,1 1019,9 1026,2 82 70 91 0,3 8,4 20,0
14.11.2018 6,4 2,4 14,9 1026,9 1025,8 1028,7 81 60 90 0,0 2,6 13,7
15.11.2018 3,9 1,2 11,6 1026,0 1024,8 1027,2 83 65 91 0,0 3,0 9,5
16.11.2018 2,8 -0,5 11,5 1028,3 1025,9 1029,6 82 59 91 0,1 1,1 4,5
17.11.2018 0,5 -1,9 5,7 1027,2 1026,5 1029,4 85 71 90 0,0 1,8 6,4
18.11.2018 1,3 -1,1 2,9 1018,8 1014,6 1026,5 80 75 89 0,0 2,2 10,0
19.11.2018 0,3 -0,7 1,1 1013,4 1012,4 1014,6 90 84 90 0,0 0,1 6,4
20.11.2018 1,1 0,5 2,3 1009,7 1008,4 1013,9 90 90 91 1,8 0,9 12,4
21.11.2018 3,1 0,6 4,6 1013,9 1010,1 1015,7 91 90 91 7,5 0,1 2,6
22.11.2018 4,3 3,5 4,7 1018,3 1015,6 1019,1 91 90 91 2,6 0,3 4,0
23.11.2018 5,6 1,5 8,4 1018,0 1014,4 1020,2 87 85 91 0,0 11,0 20,1
24.11.2018 7,2 4,0 11,9 1012,3 1010,0 1014,4 86 76 90 0,4 7,8 24,6
25.11.2018 5,3 4,1 6,4 1006,7 1003,4 1013,4 91 90 91 7,5 2,7 6,8
26.11.2018 3,9 3,1 5,1 1002,7 1000,4 1005,6 91 91 91 22,6 6,8 12,4
27.11.2018 -0,3 -1,5 3,1 1013,6 1005,5 1018,2 90 87 91 0,8 16,2 21,6
28.11.2018 -1,9 -5,7 3,1 1024,3 1018,2 1025,9 80 63 88 1,9 8,2 26,2
29.11.2018 -2,6 -8,6 3,8 1024,6 1022,0 1027,4 78 66 91 0,4 8,3 19,8
30.11.2018 -1,5 -2,3 0,7 1016,5 1015,3 1022,1 71 54 78 0,0 14,1 24,1
avg. 6,5 1017,2 84   ---
  Summe Regen: 49,0  
 
Min-Datum 29.11.2018 26.11.2018 01.11.2018 --- ---
Min-Zeit 06:26 06:26 12:42 --- ---
Minimum -8,6 1000,4 52 --- ---
 

Max-Datum

02.11.2018 16.11.2018 12.11.2018 26.11.2018 28.11.2018
Max-Zeit 14:02 10:26 20:10 00:02 03:20
Maximum 21,9 1029,6 91 22,6 26,2
 

 

  Letztes Jahr
gleiches Monat
Eistage max < 0°C 0 0
Frosttage min < 0°C 8 8
Sommertage max >=25°C 0 0
Heiße Tage max >=30°C 0 0

 

<<< nach oben >>>